KART

Watertown International Airport

Watertown, New York, USA
METAR KART 210656Z AUTO 08003KT 1/2SM FG CLR 04/04 A3015 RMK AO2 SLP209 T00440044
Observed Flight Rules
May-21 @ 06:56 UTC (19 minutes ago) Instrument Flight Rules
Wind Visibility Clouds Conditions
80° at 3 knots 1/2 miles
  • Clear skies
  • Fog
Temperatures Readings
Current 4°C / 39°F
Dewpoint 4°C / 39°F
Humidity 100%
Altimeter 30.15" Hg
Pressure 1020.9 hPa
Elevation 100
METAR KART 210656Z AUTO 08003KT 1/2SM FG CLR 04/04 A3015 RMK AO2 SLP209 T00440044
Observed Flight Rules
May-21 @ 06:56 UTC
(19 minutes ago)
LIFR
Wind Visibility
80° at 3 knots 1/2 miles
Clouds
  • Clear skies
Conditions
  • Fog
Temperature Dewpoint
4°C / 39°F 4°C / 39°F
Humidity Altimeter Pressure
100% 30.15" Hg 1020.9 hPa